sensor_id;sensor_type;location;lat;lon;timestamp;pressure;altitude;pressure_sealevel;temperature;humidity
5595;BME280;1003;48.002;7.788;2022-07-03T00:01:47;99071.94;;;18.31;100.00
5595;BME280;1003;48.002;7.788;2022-07-03T00:04:15;99074.38;;;18.14;100.00
5595;BME280;1003;48.002;7.788;2022-07-03T00:06:44;99074.97;;;18.00;100.00
5595;BME280;1003;48.002;7.788;2022-07-03T00:09:12;99070.25;;;17.91;100.00
5595;BME280;1003;48.002;7.788;2022-07-03T00:11:40;99065.75;;;17.77;100.00
5595;BME280;1003;48.002;7.788;2022-07-03T00:14:07;99062.97;;;17.61;100.00
5595;BME280;1003;48.002;7.788;2022-07-03T00:16:35;99060.94;;;17.49;100.00
5595;BME280;1003;48.002;7.788;2022-07-03T00:19:04;99061.38;;;17.38;100.00
5595;BME280;1003;48.002;7.788;2022-07-03T00:21:35;99059.94;;;17.31;100.00
5595;BME280;1003;48.002;7.788;2022-07-03T00:24:09;99064.50;;;17.23;100.00
5595;BME280;1003;48.002;7.788;2022-07-03T00:26:42;99060.59;;;17.14;100.00
5595;BME280;1003;48.002;7.788;2022-07-03T00:29:13;99065.69;;;17.14;100.00
5595;BME280;1003;48.002;7.788;2022-07-03T00:31:41;99066.09;;;17.03;100.00
5595;BME280;1003;48.002;7.788;2022-07-03T00:34:12;99058.88;;;16.93;100.00
5595;BME280;1003;48.002;7.788;2022-07-03T00:36:42;99056.59;;;16.87;100.00
5595;BME280;1003;48.002;7.788;2022-07-03T00:39:09;99067.88;;;16.79;100.00
5595;BME280;1003;48.002;7.788;2022-07-03T00:41:37;99059.63;;;16.73;100.00
5595;BME280;1003;48.002;7.788;2022-07-03T00:44:05;99062.13;;;16.74;100.00
5595;BME280;1003;48.002;7.788;2022-07-03T00:46:32;99058.09;;;16.69;100.00
5595;BME280;1003;48.002;7.788;2022-07-03T00:49:04;99054.22;;;16.59;100.00
5595;BME280;1003;48.002;7.788;2022-07-03T00:51:35;99056.09;;;16.53;100.00
5595;BME280;1003;48.002;7.788;2022-07-03T00:54:05;99063.78;;;16.52;100.00
5595;BME280;1003;48.002;7.788;2022-07-03T00:56:37;99066.03;;;16.60;100.00
5595;BME280;1003;48.002;7.788;2022-07-03T00:59:05;99064.22;;;16.63;100.00
5595;BME280;1003;48.002;7.788;2022-07-03T01:01:35;99062.81;;;16.54;100.00
5595;BME280;1003;48.002;7.788;2022-07-03T01:04:12;99058.28;;;16.39;100.00
5595;BME280;1003;48.002;7.788;2022-07-03T01:06:51;99052.03;;;16.26;100.00
5595;BME280;1003;48.002;7.788;2022-07-03T01:09:24;99054.78;;;16.20;100.00
5595;BME280;1003;48.002;7.788;2022-07-03T01:11:58;99048.31;;;16.11;100.00
5595;BME280;1003;48.002;7.788;2022-07-03T01:14:38;99051.50;;;16.16;100.00
5595;BME280;1003;48.002;7.788;2022-07-03T01:17:17;99048.25;;;16.13;100.00
5595;BME280;1003;48.002;7.788;2022-07-03T01:19:49;99041.53;;;16.12;100.00
5595;BME280;1003;48.002;7.788;2022-07-03T01:22:33;99041.38;;;15.91;100.00
5595;BME280;1003;48.002;7.788;2022-07-03T01:25:16;99035.91;;;15.79;100.00
5595;BME280;1003;48.002;7.788;2022-07-03T01:27:58;99039.19;;;15.81;100.00
5595;BME280;1003;48.002;7.788;2022-07-03T01:30:27;99041.22;;;15.71;100.00
5595;BME280;1003;48.002;7.788;2022-07-03T01:32:58;99040.72;;;15.60;100.00
5595;BME280;1003;48.002;7.788;2022-07-03T01:35:31;99043.44;;;15.54;100.00
5595;BME280;1003;48.002;7.788;2022-07-03T01:38:03;99036.31;;;15.40;100.00
5595;BME280;1003;48.002;7.788;2022-07-03T01:40:33;99023.25;;;15.26;100.00
5595;BME280;1003;48.002;7.788;2022-07-03T01:43:05;99021.00;;;15.16;100.00
5595;BME280;1003;48.002;7.788;2022-07-03T01:45:44;99022.91;;;15.10;100.00
5595;BME280;1003;48.002;7.788;2022-07-03T01:48:13;99023.16;;;15.01;100.00
5595;BME280;1003;48.002;7.788;2022-07-03T01:50:42;99013.28;;;14.93;100.00
5595;BME280;1003;48.002;7.788;2022-07-03T01:53:10;99010.84;;;14.90;100.00
5595;BME280;1003;48.002;7.788;2022-07-03T01:55:39;99010.91;;;14.88;100.00
5595;BME280;1003;48.002;7.788;2022-07-03T01:58:09;99004.97;;;14.89;100.00
5595;BME280;1003;48.002;7.788;2022-07-03T02:00:43;99013.09;;;14.99;100.00
5595;BME280;1003;48.002;7.788;2022-07-03T02:03:18;99009.56;;;15.05;100.00
5595;BME280;1003;48.002;7.788;2022-07-03T02:05:49;99011.06;;;15.10;100.00
5595;BME280;1003;48.002;7.788;2022-07-03T02:11:15;99021.41;;;15.31;100.00
5595;BME280;1003;48.002;7.788;2022-07-03T02:14:03;99030.34;;;15.41;100.00
5595;BME280;1003;48.002;7.788;2022-07-03T02:16:43;99037.81;;;15.45;100.00
5595;BME280;1003;48.002;7.788;2022-07-03T02:19:15;99040.22;;;15.48;100.00
5595;BME280;1003;48.002;7.788;2022-07-03T02:21:48;99035.81;;;15.29;100.00
5595;BME280;1003;48.002;7.788;2022-07-03T02:24:19;99044.91;;;15.08;100.00
5595;BME280;1003;48.002;7.788;2022-07-03T02:26:54;99030.19;;;14.92;100.00
5595;BME280;1003;48.002;7.788;2022-07-03T02:29:30;99035.69;;;14.77;100.00
5595;BME280;1003;48.002;7.788;2022-07-03T02:32:00;99036.88;;;14.65;100.00
5595;BME280;1003;48.002;7.788;2022-07-03T02:34:31;99046.38;;;14.57;100.00
5595;BME280;1003;48.002;7.788;2022-07-03T02:37:05;99041.56;;;14.50;100.00
5595;BME280;1003;48.002;7.788;2022-07-03T02:39:41;99044.22;;;14.43;100.00
5595;BME280;1003;48.002;7.788;2022-07-03T02:42:25;99045.09;;;14.42;100.00
5595;BME280;1003;48.002;7.788;2022-07-03T02:44:59;99043.34;;;14.44;100.00
5595;BME280;1003;48.002;7.788;2022-07-03T02:47:35;99044.13;;;14.48;100.00
5595;BME280;1003;48.002;7.788;2022-07-03T02:50:05;99038.28;;;14.44;100.00
5595;BME280;1003;48.002;7.788;2022-07-03T02:52:44;99039.25;;;14.40;100.00
5595;BME280;1003;48.002;7.788;2022-07-03T02:55:29;99047.66;;;14.41;100.00
5595;BME280;1003;48.002;7.788;2022-07-03T02:58:11;99046.19;;;14.34;100.00
5595;BME280;1003;48.002;7.788;2022-07-03T03:00:53;99042.19;;;14.25;100.00
5595;BME280;1003;48.002;7.788;2022-07-03T03:03:27;99042.34;;;14.19;100.00
5595;BME280;1003;48.002;7.788;2022-07-03T03:05:59;99043.28;;;14.16;100.00
5595;BME280;1003;48.002;7.788;2022-07-03T03:08:34;99044.00;;;14.20;100.00
5595;BME280;1003;48.002;7.788;2022-07-03T03:11:06;99044.00;;;14.20;100.00
5595;BME280;1003;48.002;7.788;2022-07-03T03:13:34;99050.81;;;14.18;100.00
5595;BME280;1003;48.002;7.788;2022-07-03T03:16:06;99054.38;;;14.11;100.00
5595;BME280;1003;48.002;7.788;2022-07-03T03:18:35;99052.03;;;14.05;100.00
5595;BME280;1003;48.002;7.788;2022-07-03T03:21:05;99054.78;;;13.96;100.00
5595;BME280;1003;48.002;7.788;2022-07-03T03:23:43;99047.25;;;13.94;100.00
5595;BME280;1003;48.002;7.788;2022-07-03T03:26:15;99054.72;;;13.97;100.00
5595;BME280;1003;48.002;7.788;2022-07-03T03:28:44;99042.06;;;13.99;100.00
5595;BME280;1003;48.002;7.788;2022-07-03T03:31:13;99047.81;;;14.04;100.00
5595;BME280;1003;48.002;7.788;2022-07-03T03:33:41;99046.72;;;14.14;100.00
5595;BME280;1003;48.002;7.788;2022-07-03T03:36:09;99051.59;;;14.20;100.00
5595;BME280;1003;48.002;7.788;2022-07-03T03:38:37;99053.97;;;14.26;100.00
5595;BME280;1003;48.002;7.788;2022-07-03T03:41:05;99054.72;;;14.30;100.00
5595;BME280;1003;48.002;7.788;2022-07-03T03:43:34;99052.22;;;14.28;100.00
5595;BME280;1003;48.002;7.788;2022-07-03T03:46:02;99053.97;;;14.26;100.00
5595;BME280;1003;48.002;7.788;2022-07-03T03:48:32;99054.66;;;14.31;100.00
5595;BME280;1003;48.002;7.788;2022-07-03T03:51:01;99059.47;;;14.40;100.00
5595;BME280;1003;48.002;7.788;2022-07-03T03:53:29;99060.72;;;14.57;100.00
5595;BME280;1003;48.002;7.788;2022-07-03T03:56:00;99066.38;;;14.66;100.00
5595;BME280;1003;48.002;7.788;2022-07-03T03:58:29;99068.97;;;14.63;100.00
5595;BME280;1003;48.002;7.788;2022-07-03T04:00:57;99074.03;;;14.63;100.00
5595;BME280;1003;48.002;7.788;2022-07-03T04:03:25;99076.66;;;14.60;100.00
5595;BME280;1003;48.002;7.788;2022-07-03T04:05:54;99071.72;;;14.56;100.00
5595;BME280;1003;48.002;7.788;2022-07-03T04:08:22;99079.25;;;14.59;100.00
5595;BME280;1003;48.002;7.788;2022-07-03T04:10:50;99083.31;;;14.63;100.00
5595;BME280;1003;48.002;7.788;2022-07-03T04:13:18;99083.00;;;14.74;100.00
5595;BME280;1003;48.002;7.788;2022-07-03T04:15:46;99083.63;;;14.82;100.00
5595;BME280;1003;48.002;7.788;2022-07-03T04:18:14;99088.19;;;14.99;100.00
5595;BME280;1003;48.002;7.788;2022-07-03T04:20:42;99090.03;;;15.21;100.00
5595;BME280;1003;48.002;7.788;2022-07-03T04:23:11;99097.59;;;15.49;100.00
5595;BME280;1003;48.002;7.788;2022-07-03T04:25:38;99108.78;;;15.70;100.00
5595;BME280;1003;48.002;7.788;2022-07-03T04:28:06;99107.19;;;15.94;100.00
5595;BME280;1003;48.002;7.788;2022-07-03T04:30:33;99111.41;;;16.19;100.00
5595;BME280;1003;48.002;7.788;2022-07-03T04:33:01;99108.81;;;16.45;100.00
5595;BME280;1003;48.002;7.788;2022-07-03T04:35:28;99113.91;;;16.69;100.00
5595;BME280;1003;48.002;7.788;2022-07-03T04:37:55;99127.09;;;17.02;100.00
5595;BME280;1003;48.002;7.788;2022-07-03T04:40:24;99136.19;;;17.95;100.00
5595;BME280;1003;48.002;7.788;2022-07-03T04:42:52;99127.25;;;20.29;100.00
5595;BME280;1003;48.002;7.788;2022-07-03T04:45:19;99138.66;;;23.11;82.77
5595;BME280;1003;48.002;7.788;2022-07-03T04:47:47;99143.03;;;25.64;59.76
5595;BME280;1003;48.002;7.788;2022-07-03T04:50:14;99142.94;;;27.13;51.12
5595;BME280;1003;48.002;7.788;2022-07-03T04:52:42;99156.13;;;27.95;49.39
5595;BME280;1003;48.002;7.788;2022-07-03T04:55:09;99162.88;;;29.09;46.53
5595;BME280;1003;48.002;7.788;2022-07-03T04:57:39;99166.00;;;30.19;41.97
5595;BME280;1003;48.002;7.788;2022-07-03T05:00:07;99169.78;;;30.71;39.32
5595;BME280;1003;48.002;7.788;2022-07-03T05:02:35;99168.69;;;30.74;39.49
5595;BME280;1003;48.002;7.788;2022-07-03T05:05:02;99171.22;;;31.11;38.10
5595;BME280;1003;48.002;7.788;2022-07-03T05:07:30;99178.06;;;31.66;36.91
5595;BME280;1003;48.002;7.788;2022-07-03T05:09:57;99181.03;;;31.88;37.01
5595;BME280;1003;48.002;7.788;2022-07-03T05:12:25;99177.69;;;31.78;34.88
5595;BME280;1003;48.002;7.788;2022-07-03T05:14:54;99173.34;;;32.65;35.52
5595;BME280;1003;48.002;7.788;2022-07-03T05:17:21;99177.97;;;32.87;34.59
5595;BME280;1003;48.002;7.788;2022-07-03T05:19:49;99181.19;;;31.51;36.12
5595;BME280;1003;48.002;7.788;2022-07-03T05:22:37;99182.09;;;30.97;36.57
5595;BME280;1003;48.002;7.788;2022-07-03T05:25:05;99186.88;;;33.11;34.77
5595;BME280;1003;48.002;7.788;2022-07-03T05:27:35;99190.31;;;32.17;35.51
5595;BME280;1003;48.002;7.788;2022-07-03T05:30:06;99191.72;;;31.68;35.62
5595;BME280;1003;48.002;7.788;2022-07-03T05:32:33;99185.34;;;31.98;34.87
5595;BME280;1003;48.002;7.788;2022-07-03T05:35:00;99193.22;;;33.16;34.53
5595;BME280;1003;48.002;7.788;2022-07-03T05:37:27;99198.97;;;32.86;34.07
5595;BME280;1003;48.002;7.788;2022-07-03T05:39:54;99186.16;;;32.92;33.63
5595;BME280;1003;48.002;7.788;2022-07-03T05:42:22;99186.50;;;32.98;34.17
5595;BME280;1003;48.002;7.788;2022-07-03T05:44:49;99191.81;;;33.55;33.83
5595;BME280;1003;48.002;7.788;2022-07-03T05:47:17;99187.97;;;32.32;33.61
5595;BME280;1003;48.002;7.788;2022-07-03T05:49:45;99183.34;;;32.86;35.23
5595;BME280;1003;48.002;7.788;2022-07-03T05:52:12;99183.25;;;32.96;34.86
5595;BME280;1003;48.002;7.788;2022-07-03T05:54:39;99184.28;;;32.77;33.24
5595;BME280;1003;48.002;7.788;2022-07-03T05:57:06;99180.25;;;32.40;34.51
5595;BME280;1003;48.002;7.788;2022-07-03T05:59:33;99177.78;;;33.31;34.35
5595;BME280;1003;48.002;7.788;2022-07-03T06:02:00;99189.81;;;33.16;32.80
5595;BME280;1003;48.002;7.788;2022-07-03T06:04:29;99184.81;;;33.55;35.55
5595;BME280;1003;48.002;7.788;2022-07-03T06:06:57;99180.13;;;32.92;35.21
5595;BME280;1003;48.002;7.788;2022-07-03T06:09:24;99190.34;;;33.68;34.62
5595;BME280;1003;48.002;7.788;2022-07-03T06:11:51;99180.22;;;33.33;34.75
5595;BME280;1003;48.002;7.788;2022-07-03T06:14:18;99187.97;;;34.55;33.09
5595;BME280;1003;48.002;7.788;2022-07-03T06:16:45;99185.84;;;34.98;33.51
5595;BME280;1003;48.002;7.788;2022-07-03T06:19:12;99182.25;;;35.45;33.67
5595;BME280;1003;48.002;7.788;2022-07-03T06:21:40;99187.34;;;35.15;29.94
5595;BME280;1003;48.002;7.788;2022-07-03T06:24:10;99187.00;;;34.40;32.50
5595;BME280;1003;48.002;7.788;2022-07-03T06:26:37;99187.47;;;35.22;32.97
5595;BME280;1003;48.002;7.788;2022-07-03T06:29:04;99180.19;;;34.78;32.98
5595;BME280;1003;48.002;7.788;2022-07-03T06:31:31;99194.31;;;35.00;31.44
5595;BME280;1003;48.002;7.788;2022-07-03T06:33:58;99183.78;;;34.77;30.48
5595;BME280;1003;48.002;7.788;2022-07-03T06:36:26;99178.41;;;34.70;34.37
5595;BME280;1003;48.002;7.788;2022-07-03T06:38:54;99183.22;;;35.52;32.35
5595;BME280;1003;48.002;7.788;2022-07-03T06:41:21;99187.97;;;35.86;33.83
5595;BME280;1003;48.002;7.788;2022-07-03T06:43:48;99183.31;;;35.96;32.37
5595;BME280;1003;48.002;7.788;2022-07-03T06:46:15;99181.94;;;35.17;30.89
5595;BME280;1003;48.002;7.788;2022-07-03T06:48:42;99179.75;;;35.89;33.43
5595;BME280;1003;48.002;7.788;2022-07-03T06:51:09;99176.09;;;34.76;34.70
5595;BME280;1003;48.002;7.788;2022-07-03T06:53:36;99178.34;;;35.18;35.32
5595;BME280;1003;48.002;7.788;2022-07-03T06:56:05;99175.97;;;35.31;31.56
5595;BME280;1003;48.002;7.788;2022-07-03T06:58:32;99186.06;;;36.33;32.56
5595;BME280;1003;48.002;7.788;2022-07-03T07:00:59;99186.47;;;35.23;31.92
5595;BME280;1003;48.002;7.788;2022-07-03T07:03:26;99186.13;;;34.64;31.44
5595;BME280;1003;48.002;7.788;2022-07-03T07:05:53;99188.41;;;34.67;32.86
5595;BME280;1003;48.002;7.788;2022-07-03T07:08:20;99182.50;;;34.17;34.55
5595;BME280;1003;48.002;7.788;2022-07-03T07:10:47;99184.00;;;34.12;35.73
5595;BME280;1003;48.002;7.788;2022-07-03T07:13:15;99187.59;;;34.66;33.25
5595;BME280;1003;48.002;7.788;2022-07-03T07:15:43;99190.16;;;34.11;33.17
5595;BME280;1003;48.002;7.788;2022-07-03T07:18:10;99194.63;;;34.58;33.63
5595;BME280;1003;48.002;7.788;2022-07-03T07:20:37;99193.72;;;34.26;35.92
5595;BME280;1003;48.002;7.788;2022-07-03T07:23:04;99201.47;;;34.59;36.07
5595;BME280;1003;48.002;7.788;2022-07-03T07:25:31;99194.75;;;34.09;35.49
5595;BME280;1003;48.002;7.788;2022-07-03T07:27:58;99192.97;;;33.60;37.49
5595;BME280;1003;48.002;7.788;2022-07-03T07:30:26;99191.50;;;33.99;34.59
5595;BME280;1003;48.002;7.788;2022-07-03T07:32:53;99185.47;;;33.41;38.54
5595;BME280;1003;48.002;7.788;2022-07-03T07:35:23;99188.59;;;33.53;36.59
5595;BME280;1003;48.002;7.788;2022-07-03T07:37:50;99183.63;;;33.33;36.36
5595;BME280;1003;48.002;7.788;2022-07-03T07:40:17;99179.78;;;33.54;40.29
5595;BME280;1003;48.002;7.788;2022-07-03T07:42:44;99182.00;;;33.40;37.02
5595;BME280;1003;48.002;7.788;2022-07-03T07:45:12;99176.13;;;33.30;38.92
5595;BME280;1003;48.002;7.788;2022-07-03T07:47:40;99171.34;;;32.93;38.96
5595;BME280;1003;48.002;7.788;2022-07-03T07:50:08;99177.00;;;33.80;36.68
5595;BME280;1003;48.002;7.788;2022-07-03T07:52:36;99178.94;;;33.61;40.77
5595;BME280;1003;48.002;7.788;2022-07-03T07:55:05;99180.09;;;33.75;39.67
5595;BME280;1003;48.002;7.788;2022-07-03T07:57:34;99182.84;;;33.90;39.51
5595;BME280;1003;48.002;7.788;2022-07-03T08:00:07;99178.47;;;34.07;38.46
5595;BME280;1003;48.002;7.788;2022-07-03T08:02:35;99178.16;;;33.69;35.93
5595;BME280;1003;48.002;7.788;2022-07-03T08:05:20;99170.47;;;33.51;39.15
5595;BME280;1003;48.002;7.788;2022-07-03T08:08:06;99167.00;;;33.18;35.55
5595;BME280;1003;48.002;7.788;2022-07-03T08:10:36;99162.22;;;32.47;40.32
5595;BME280;1003;48.002;7.788;2022-07-03T08:13:04;99163.38;;;32.95;39.20
5595;BME280;1003;48.002;7.788;2022-07-03T08:15:31;99164.06;;;33.13;37.50
5595;BME280;1003;48.002;7.788;2022-07-03T08:17:59;99165.75;;;33.55;40.08
5595;BME280;1003;48.002;7.788;2022-07-03T08:20:28;99167.06;;;33.75;39.11
5595;BME280;1003;48.002;7.788;2022-07-03T08:22:56;99169.81;;;33.74;36.56
5595;BME280;1003;48.002;7.788;2022-07-03T08:25:23;99162.19;;;33.48;38.47
5595;BME280;1003;48.002;7.788;2022-07-03T08:27:51;99159.72;;;33.38;39.13
5595;BME280;1003;48.002;7.788;2022-07-03T08:30:19;99163.38;;;32.95;38.54
5595;BME280;1003;48.002;7.788;2022-07-03T08:32:47;99162.84;;;32.41;38.40
5595;BME280;1003;48.002;7.788;2022-07-03T08:35:15;99162.03;;;32.14;39.42
5595;BME280;1003;48.002;7.788;2022-07-03T08:37:45;99162.13;;;31.60;41.58
5595;BME280;1003;48.002;7.788;2022-07-03T08:40:15;99158.84;;;31.41;41.64
5595;BME280;1003;48.002;7.788;2022-07-03T08:42:46;99153.81;;;31.39;41.29
5595;BME280;1003;48.002;7.788;2022-07-03T08:45:16;99164.06;;;31.41;42.82
5595;BME280;1003;48.002;7.788;2022-07-03T08:47:45;99160.78;;;31.56;41.39
5595;BME280;1003;48.002;7.788;2022-07-03T08:50:15;99156.38;;;31.93;35.97
5595;BME280;1003;48.002;7.788;2022-07-03T08:52:46;99158.97;;;31.93;39.01
5595;BME280;1003;48.002;7.788;2022-07-03T08:55:15;99158.91;;;31.84;40.44
5595;BME280;1003;48.002;7.788;2022-07-03T08:57:44;99154.72;;;31.74;38.97
5595;BME280;1003;48.002;7.788;2022-07-03T09:00:14;99155.00;;;31.45;38.35
5595;BME280;1003;48.002;7.788;2022-07-03T09:02:44;99155.84;;;31.18;38.94
5595;BME280;1003;48.002;7.788;2022-07-03T09:05:14;99155.66;;;31.11;38.66
5595;BME280;1003;48.002;7.788;2022-07-03T09:07:44;99148.78;;;30.92;40.36
5595;BME280;1003;48.002;7.788;2022-07-03T09:10:17;99152.97;;;30.75;38.97
5595;BME280;1003;48.002;7.788;2022-07-03T09:12:47;99152.03;;;30.67;38.19
5595;BME280;1003;48.002;7.788;2022-07-03T09:15:15;99151.41;;;30.18;38.34
5595;BME280;1003;48.002;7.788;2022-07-03T09:17:57;99146.53;;;29.95;39.29
5595;BME280;1003;48.002;7.788;2022-07-03T09:20:30;99146.59;;;29.66;40.76
5595;BME280;1003;48.002;7.788;2022-07-03T09:23:14;99147.25;;;29.59;39.91
5595;BME280;1003;48.002;7.788;2022-07-03T09:25:56;99148.06;;;29.69;40.67
5595;BME280;1003;48.002;7.788;2022-07-03T09:28:41;99143.03;;;29.77;39.85
5595;BME280;1003;48.002;7.788;2022-07-03T09:31:10;99142.06;;;29.68;40.12
5595;BME280;1003;48.002;7.788;2022-07-03T09:33:50;99148.88;;;29.79;36.64
5595;BME280;1003;48.002;7.788;2022-07-03T09:36:18;99140.16;;;29.70;38.09
5595;BME280;1003;48.002;7.788;2022-07-03T09:38:49;99146.03;;;29.34;37.10
5595;BME280;1003;48.002;7.788;2022-07-03T09:41:16;99134.56;;;29.46;38.64
5595;BME280;1003;48.002;7.788;2022-07-03T09:43:44;99134.16;;;29.50;39.11
5595;BME280;1003;48.002;7.788;2022-07-03T09:46:12;99128.16;;;29.50;36.44
5595;BME280;1003;48.002;7.788;2022-07-03T09:48:41;99130.63;;;29.13;37.33
5595;BME280;1003;48.002;7.788;2022-07-03T09:51:16;99125.28;;;29.14;36.40
5595;BME280;1003;48.002;7.788;2022-07-03T09:53:45;99122.31;;;29.19;38.83
5595;BME280;1003;48.002;7.788;2022-07-03T09:56:14;99120.94;;;29.34;39.22
5595;BME280;1003;48.002;7.788;2022-07-03T09:59:06;99110.44;;;29.45;38.87
5595;BME280;1003;48.002;7.788;2022-07-03T10:01:35;99111.66;;;29.41;39.37
5595;BME280;1003;48.002;7.788;2022-07-03T10:04:12;99114.53;;;29.48;38.46
5595;BME280;1003;48.002;7.788;2022-07-03T10:06:53;99112.06;;;29.46;35.95
5595;BME280;1003;48.002;7.788;2022-07-03T10:09:23;99114.53;;;29.28;38.43
5595;BME280;1003;48.002;7.788;2022-07-03T10:11:54;99117.38;;;29.25;36.46
5595;BME280;1003;48.002;7.788;2022-07-03T10:14:23;99114.94;;;29.24;38.19
5595;BME280;1003;48.002;7.788;2022-07-03T10:16:51;99109.06;;;29.22;38.60
5595;BME280;1003;48.002;7.788;2022-07-03T10:19:20;99110.19;;;29.29;37.61
5595;BME280;1003;48.002;7.788;2022-07-03T10:21:52;99112.50;;;29.22;38.84
5595;BME280;1003;48.002;7.788;2022-07-03T10:24:22;99110.16;;;29.19;38.24
5595;BME280;1003;48.002;7.788;2022-07-03T10:26:53;99101.31;;;29.12;35.78
5595;BME280;1003;48.002;7.788;2022-07-03T10:29:22;99109.78;;;29.24;36.88
5595;BME280;1003;48.002;7.788;2022-07-03T10:31:49;99106.47;;;29.22;38.32
5595;BME280;1003;48.002;7.788;2022-07-03T10:34:19;99106.22;;;29.44;37.18
5595;BME280;1003;48.002;7.788;2022-07-03T10:36:50;99097.75;;;29.52;38.32
5595;BME280;1003;48.002;7.788;2022-07-03T10:39:31;99108.28;;;29.60;36.85
5595;BME280;1003;48.002;7.788;2022-07-03T10:42:04;99105.00;;;29.68;37.16
5595;BME280;1003;48.002;7.788;2022-07-03T10:45:05;99095.88;;;29.44;36.46
5595;BME280;1003;48.002;7.788;2022-07-03T10:47:46;99105.25;;;29.36;37.79
5595;BME280;1003;48.002;7.788;2022-07-03T10:50:17;99103.53;;;29.56;37.76
5595;BME280;1003;48.002;7.788;2022-07-03T10:52:48;99107.03;;;29.45;35.87
5595;BME280;1003;48.002;7.788;2022-07-03T10:55:17;99101.03;;;29.44;36.96
5595;BME280;1003;48.002;7.788;2022-07-03T10:58:07;99106.22;;;29.54;37.80
5595;BME280;1003;48.002;7.788;2022-07-03T11:00:53;99098.00;;;29.49;36.24
5595;BME280;1003;48.002;7.788;2022-07-03T11:03:51;99092.56;;;29.42;38.07
5595;BME280;1003;48.002;7.788;2022-07-03T11:06:20;99087.44;;;29.23;39.70
5595;BME280;1003;48.002;7.788;2022-07-03T11:09:01;99086.06;;;29.28;38.94
5595;BME280;1003;48.002;7.788;2022-07-03T11:11:41;99080.31;;;29.54;37.25
5595;BME280;1003;48.002;7.788;2022-07-03T11:14:26;99087.81;;;29.57;38.37
5595;BME280;1003;48.002;7.788;2022-07-03T11:17:16;99080.44;;;29.82;37.53
5595;BME280;1003;48.002;7.788;2022-07-03T11:19:44;99082.16;;;29.81;36.79
5595;BME280;1003;48.002;7.788;2022-07-03T11:22:46;99087.66;;;29.78;36.98
5595;BME280;1003;48.002;7.788;2022-07-03T11:25:17;99073.59;;;29.80;38.30
5595;BME280;1003;48.002;7.788;2022-07-03T11:27:45;99069.63;;;29.86;38.33
5595;BME280;1003;48.002;7.788;2022-07-03T11:30:15;99071.28;;;29.87;38.36
5595;BME280;1003;48.002;7.788;2022-07-03T11:32:53;99069.31;;;29.99;37.89
5595;BME280;1003;48.002;7.788;2022-07-03T11:35:49;99067.53;;;29.99;36.86
5595;BME280;1003;48.002;7.788;2022-07-03T11:38:29;99066.34;;;29.84;34.81
5595;BME280;1003;48.002;7.788;2022-07-03T11:40:59;99058.19;;;29.79;37.78
5595;BME280;1003;48.002;7.788;2022-07-03T11:43:28;99053.66;;;29.81;38.63
5595;BME280;1003;48.002;7.788;2022-07-03T11:45:57;99049.00;;;29.94;37.67
5595;BME280;1003;48.002;7.788;2022-07-03T11:48:26;99044.88;;;30.01;38.03
5595;BME280;1003;48.002;7.788;2022-07-03T11:50:59;99049.94;;;30.03;39.13
5595;BME280;1003;48.002;7.788;2022-07-03T11:53:30;99045.41;;;30.05;39.76
5595;BME280;1003;48.002;7.788;2022-07-03T11:56:00;99041.69;;;30.17;37.02
5595;BME280;1003;48.002;7.788;2022-07-03T11:58:42;99040.47;;;30.21;37.56
5595;BME280;1003;48.002;7.788;2022-07-03T12:01:28;99042.38;;;30.19;37.10
5595;BME280;1003;48.002;7.788;2022-07-03T12:04:05;99044.59;;;30.14;36.89
5595;BME280;1003;48.002;7.788;2022-07-03T12:06:38;99045.19;;;29.98;36.35
5595;BME280;1003;48.002;7.788;2022-07-03T12:09:18;99033.88;;;30.27;37.00
5595;BME280;1003;48.002;7.788;2022-07-03T12:12:00;99025.25;;;30.36;34.76
5595;BME280;1003;48.002;7.788;2022-07-03T12:14:36;99034.25;;;30.32;36.53
5595;BME280;1003;48.002;7.788;2022-07-03T12:17:07;99034.22;;;30.59;36.98
5595;BME280;1003;48.002;7.788;2022-07-03T12:19:34;99029.53;;;30.73;35.82
5595;BME280;1003;48.002;7.788;2022-07-03T12:22:03;99026.16;;;30.63;35.14
5595;BME280;1003;48.002;7.788;2022-07-03T12:24:30;99021.22;;;30.87;35.63
5595;BME280;1003;48.002;7.788;2022-07-03T12:27:02;99015.13;;;30.96;36.77
5595;BME280;1003;48.002;7.788;2022-07-03T12:29:31;99015.78;;;30.98;36.90
5595;BME280;1003;48.002;7.788;2022-07-03T12:31:59;99014.53;;;31.02;36.20
5595;BME280;1003;48.002;7.788;2022-07-03T12:34:28;99003.91;;;31.14;35.97
5595;BME280;1003;48.002;7.788;2022-07-03T12:36:57;99003.50;;;31.00;38.64
5595;BME280;1003;48.002;7.788;2022-07-03T12:39:42;99001.47;;;30.94;36.44
5595;BME280;1003;48.002;7.788;2022-07-03T12:42:17;98997.56;;;30.90;36.66
5595;BME280;1003;48.002;7.788;2022-07-03T12:44:56;99004.88;;;31.13;37.31
5595;BME280;1003;48.002;7.788;2022-07-03T12:47:24;98990.63;;;31.17;33.57
5595;BME280;1003;48.002;7.788;2022-07-03T12:50:00;98985.56;;;31.33;35.88
5595;BME280;1003;48.002;7.788;2022-07-03T12:52:28;98983.19;;;31.22;34.49
5595;BME280;1003;48.002;7.788;2022-07-03T12:54:55;98975.22;;;30.97;36.07
5595;BME280;1003;48.002;7.788;2022-07-03T12:57:23;98974.50;;;30.87;36.54
5595;BME280;1003;48.002;7.788;2022-07-03T13:00:11;98965.31;;;30.75;37.31
5595;BME280;1003;48.002;7.788;2022-07-03T13:02:44;98966.78;;;30.77;34.54
5595;BME280;1003;48.002;7.788;2022-07-03T13:05:18;98970.03;;;30.44;34.42
5595;BME280;1003;48.002;7.788;2022-07-03T13:07:47;98966.03;;;30.49;34.74
5595;BME280;1003;48.002;7.788;2022-07-03T13:10:16;98962.47;;;30.68;34.67
5595;BME280;1003;48.002;7.788;2022-07-03T13:12:49;98951.34;;;30.94;36.14
5595;BME280;1003;48.002;7.788;2022-07-03T13:15:17;98956.34;;;31.13;35.04
5595;BME280;1003;48.002;7.788;2022-07-03T13:18:06;98951.50;;;31.36;36.86
5595;BME280;1003;48.002;7.788;2022-07-03T13:20:39;98948.41;;;31.67;36.29
5595;BME280;1003;48.002;7.788;2022-07-03T13:23:07;98949.19;;;31.93;34.97
5595;BME280;1003;48.002;7.788;2022-07-03T13:25:37;98951.84;;;32.09;35.87
5595;BME280;1003;48.002;7.788;2022-07-03T13:28:08;98949.56;;;32.23;34.66
5595;BME280;1003;48.002;7.788;2022-07-03T13:30:36;98953.81;;;32.32;33.46
5595;BME280;1003;48.002;7.788;2022-07-03T13:33:05;98954.63;;;32.32;34.32
5595;BME280;1003;48.002;7.788;2022-07-03T13:35:33;98956.97;;;32.35;35.60
5595;BME280;1003;48.002;7.788;2022-07-03T13:38:02;98957.53;;;32.21;36.15
5595;BME280;1003;48.002;7.788;2022-07-03T13:40:30;98956.69;;;32.12;35.51
5595;BME280;1003;48.002;7.788;2022-07-03T13:42:57;98946.28;;;32.04;36.29